Strava‎ > ‎

September


Blimey, that was much harder than I expected?  Great riding from all, close times and an unexpected WIN for Karl Chandler with Jon languishing in 3rd place (You don't see that too often)  Only Lara competing in the womens league!?  So she wins.

Results below:

WOMEN:
Rank Name Date Speed HR Power VAM Time
1 Lara Taylor 23-Sep-17 38.6km/h 162bpm 233W - 00:02:41

MEN:
Rank Name Date Speed HR Power VAM Time
1 Karl Chandler 26-Sep-17 44.0km/h 148bpm 445W  - 00:02:21
2 Chris Parker 17-Sep-17 43.4km/h - 309W  - 00:02:23
3 Jon Hughes 29-Sep-17 43.1km/h 167bpm 367W  - 00:02:24
4 David Triska 18-Sep-17 42.2km/h - 317W  - 00:02:27
5 Alastair B 27-Sep-17 42.2km/h 172bpm 354W  - 00:02:27
6 Matt Hill 29-Sep-17 41.7km/h 170bpm 288W - 00:02:29
7 Ben Brown 03-Sep-17 41.4km/h 187bpm 275W - 00:02:30
8 Tim Powell 27-Sep-17 41.4km/h 164bpm 281W - 00:02:30
9 Steven Byers 30-Sep-17 41.4km/h 174bpm 327W - 00:02:30
10 Mark Herbert | VCGH 17-Sep-17 41.1km/h - 291W - 00:02:31
11 Marco Beestro 19-Sep-17 40.6km/h 159bpm 268W - 00:02:33
12 Ross Ovens 20-Sep-17 40.1km/h 168bpm 278W - 00:02:35
13 James Andrews 27-Sep-17 39.8km/h - 241W - 00:02:36
14 Ike on Bikes 06-Sep-17 37.4km/h 175bpm 207W - 00:02:46
15 Matt Kevern 30-Sep-17 36.5km/h 159bpm 212W - 00:02:50
16 Neil Franks 02-Sep-17 35.5km/h - 176W - 00:02:55
17 Graham Smith 17-Sep-17 35.1km/h 168bpm 168W - 00:02:57
18 Pete Crowley 03-Sep-17 32.2km/h 144bpm 322W - 00:03:13
19 Keith Downie 03-Sep-17 32.0km/h 158bpm 123W  - 00:03:14
20 R HS | VCGH 03-Sep-17 32.0km/h 115bpm 146W - 00:03:14
21 Kristian Sheglova 03-Sep-17 31.8km/h 151bpm 199W - 00:03:15
22 David Lomax 03-Sep-17 31.8km/h 107bpm 151W - 00:03:15
23 Paul Kirby 03-Sep-17 31.5km/h 136bpm 140W - 00:03:17
24 Bryan Evans 07-Sep-17 30.0km/h 108bpm 122W - 00:03:27
25 Neil Gardiner 23-Sep-17 18.8km/h - 42W - 00:05:30

This months segment is a testy little sprint...well actually its more of a lead out, into a sprint at 1.7km.  Its testy in that it has some wonderful little rises when you least need them.  If you're on the rivet, then you should be crying with pain with 700m to go.  Its a cracker, beware of the holes, maybe reccie it first....and RIDE HARD FOLKS.  Its the club HC next month!  GULP.